sensor_id;sensor_type;location;lat;lon;timestamp;P1;durP1;ratioP1;P2;durP2;ratioP2
7821;SDS011;3956;50.558;9.678;2022-07-25T00:02:15;7.43;;;6.73;;
7821;SDS011;3956;50.558;9.678;2022-07-25T00:04:43;8.90;;;7.20;;
7821;SDS011;3956;50.558;9.678;2022-07-25T00:07:11;7.60;;;6.77;;
7821;SDS011;3956;50.558;9.678;2022-07-25T00:09:41;10.83;;;6.67;;
7821;SDS011;3956;50.558;9.678;2022-07-25T00:12:11;8.10;;;7.03;;
7821;SDS011;3956;50.558;9.678;2022-07-25T00:14:40;9.70;;;7.00;;
7821;SDS011;3956;50.558;9.678;2022-07-25T00:17:09;7.97;;;6.97;;
7821;SDS011;3956;50.558;9.678;2022-07-25T00:19:37;10.07;;;7.10;;
7821;SDS011;3956;50.558;9.678;2022-07-25T00:22:07;8.83;;;7.03;;
7821;SDS011;3956;50.558;9.678;2022-07-25T00:24:35;9.93;;;7.20;;
7821;SDS011;3956;50.558;9.678;2022-07-25T00:27:05;8.47;;;6.83;;
7821;SDS011;3956;50.558;9.678;2022-07-25T00:29:34;8.37;;;6.97;;
7821;SDS011;3956;50.558;9.678;2022-07-25T00:32:02;8.17;;;7.10;;
7821;SDS011;3956;50.558;9.678;2022-07-25T00:34:31;7.90;;;7.10;;
7821;SDS011;3956;50.558;9.678;2022-07-25T00:37:00;9.27;;;7.33;;
7821;SDS011;3956;50.558;9.678;2022-07-25T00:39:28;11.10;;;7.53;;
7821;SDS011;3956;50.558;9.678;2022-07-25T00:42:01;9.90;;;8.40;;
7821;SDS011;3956;50.558;9.678;2022-07-25T00:44:31;9.63;;;7.50;;
7821;SDS011;3956;50.558;9.678;2022-07-25T00:47:00;7.97;;;7.17;;
7821;SDS011;3956;50.558;9.678;2022-07-25T00:49:29;8.30;;;7.33;;
7821;SDS011;3956;50.558;9.678;2022-07-25T00:51:57;9.43;;;6.97;;
7821;SDS011;3956;50.558;9.678;2022-07-25T00:54:26;8.27;;;7.30;;
7821;SDS011;3956;50.558;9.678;2022-07-25T00:56:55;9.03;;;7.00;;
7821;SDS011;3956;50.558;9.678;2022-07-25T00:59:23;10.10;;;7.60;;
7821;SDS011;3956;50.558;9.678;2022-07-25T01:01:53;8.47;;;7.60;;
7821;SDS011;3956;50.558;9.678;2022-07-25T01:04:22;9.67;;;7.37;;
7821;SDS011;3956;50.558;9.678;2022-07-25T01:06:50;8.70;;;7.80;;
7821;SDS011;3956;50.558;9.678;2022-07-25T01:09:19;10.00;;;7.77;;
7821;SDS011;3956;50.558;9.678;2022-07-25T01:11:48;8.07;;;7.27;;
7821;SDS011;3956;50.558;9.678;2022-07-25T01:14:17;8.63;;;7.50;;
7821;SDS011;3956;50.558;9.678;2022-07-25T01:16:45;8.70;;;7.30;;
7821;SDS011;3956;50.558;9.678;2022-07-25T01:19:15;9.27;;;7.60;;
7821;SDS011;3956;50.558;9.678;2022-07-25T01:21:45;8.73;;;7.80;;
7821;SDS011;3956;50.558;9.678;2022-07-25T01:24:14;9.57;;;7.70;;
7821;SDS011;3956;50.558;9.678;2022-07-25T01:26:42;9.57;;;8.07;;
7821;SDS011;3956;50.558;9.678;2022-07-25T01:29:10;9.30;;;7.67;;
7821;SDS011;3956;50.558;9.678;2022-07-25T01:31:39;9.03;;;7.80;;
7821;SDS011;3956;50.558;9.678;2022-07-25T01:34:07;8.73;;;7.83;;
7821;SDS011;3956;50.558;9.678;2022-07-25T01:36:36;8.17;;;7.37;;
7821;SDS011;3956;50.558;9.678;2022-07-25T01:39:05;9.00;;;7.50;;
7821;SDS011;3956;50.558;9.678;2022-07-25T01:41:36;8.83;;;7.43;;
7821;SDS011;3956;50.558;9.678;2022-07-25T01:44:05;12.37;;;7.87;;
7821;SDS011;3956;50.558;9.678;2022-07-25T01:46:34;9.50;;;7.23;;
7821;SDS011;3956;50.558;9.678;2022-07-25T01:49:02;9.47;;;8.27;;
7821;SDS011;3956;50.558;9.678;2022-07-25T01:51:31;9.73;;;7.77;;
7821;SDS011;3956;50.558;9.678;2022-07-25T01:54:00;9.40;;;7.67;;
7821;SDS011;3956;50.558;9.678;2022-07-25T01:56:31;9.00;;;8.10;;
7821;SDS011;3956;50.558;9.678;2022-07-25T01:59:01;9.40;;;8.40;;
7821;SDS011;3956;50.558;9.678;2022-07-25T02:01:29;9.33;;;8.23;;
7821;SDS011;3956;50.558;9.678;2022-07-25T02:03:58;9.07;;;8.10;;
7821;SDS011;3956;50.558;9.678;2022-07-25T02:06:26;10.53;;;8.60;;
7821;SDS011;3956;50.558;9.678;2022-07-25T02:08:54;9.30;;;8.40;;
7821;SDS011;3956;50.558;9.678;2022-07-25T02:11:23;9.53;;;8.50;;
7821;SDS011;3956;50.558;9.678;2022-07-25T02:13:53;8.70;;;7.80;;
7821;SDS011;3956;50.558;9.678;2022-07-25T02:16:21;8.87;;;7.93;;
7821;SDS011;3956;50.558;9.678;2022-07-25T02:18:54;9.00;;;7.87;;
7821;SDS011;3956;50.558;9.678;2022-07-25T02:21:23;9.17;;;8.27;;
7821;SDS011;3956;50.558;9.678;2022-07-25T02:23:52;8.60;;;7.77;;
7821;SDS011;3956;50.558;9.678;2022-07-25T02:26:20;11.87;;;7.97;;
7821;SDS011;3956;50.558;9.678;2022-07-25T02:28:49;8.63;;;7.73;;
7821;SDS011;3956;50.558;9.678;2022-07-25T02:31:19;9.30;;;7.73;;
7821;SDS011;3956;50.558;9.678;2022-07-25T02:33:47;9.73;;;8.77;;
7821;SDS011;3956;50.558;9.678;2022-07-25T02:36:16;11.67;;;8.13;;
7821;SDS011;3956;50.558;9.678;2022-07-25T02:38:44;9.20;;;8.20;;
7821;SDS011;3956;50.558;9.678;2022-07-25T02:41:12;9.80;;;8.57;;
7821;SDS011;3956;50.558;9.678;2022-07-25T02:43:46;9.43;;;8.10;;
7821;SDS011;3956;50.558;9.678;2022-07-25T02:46:15;8.67;;;7.53;;
7821;SDS011;3956;50.558;9.678;2022-07-25T02:48:45;8.07;;;7.27;;
7821;SDS011;3956;50.558;9.678;2022-07-25T02:51:13;10.37;;;8.97;;
7821;SDS011;3956;50.558;9.678;2022-07-25T02:53:43;8.90;;;7.70;;
7821;SDS011;3956;50.558;9.678;2022-07-25T02:56:23;8.27;;;7.43;;
7821;SDS011;3956;50.558;9.678;2022-07-25T02:58:55;10.17;;;8.63;;
7821;SDS011;3956;50.558;9.678;2022-07-25T03:01:24;10.90;;;9.00;;
7821;SDS011;3956;50.558;9.678;2022-07-25T03:03:54;9.23;;;8.33;;
7821;SDS011;3956;50.558;9.678;2022-07-25T03:06:22;9.80;;;8.77;;
7821;SDS011;3956;50.558;9.678;2022-07-25T03:08:51;9.53;;;8.07;;
7821;SDS011;3956;50.558;9.678;2022-07-25T03:11:19;9.20;;;8.20;;
7821;SDS011;3956;50.558;9.678;2022-07-25T03:13:48;10.20;;;8.10;;
7821;SDS011;3956;50.558;9.678;2022-07-25T03:16:16;9.17;;;8.00;;
7821;SDS011;3956;50.558;9.678;2022-07-25T03:18:44;10.13;;;8.63;;
7821;SDS011;3956;50.558;9.678;2022-07-25T03:21:15;9.57;;;8.50;;
7821;SDS011;3956;50.558;9.678;2022-07-25T03:23:45;10.53;;;8.70;;
7821;SDS011;3956;50.558;9.678;2022-07-25T03:26:18;9.73;;;8.17;;
7821;SDS011;3956;50.558;9.678;2022-07-25T03:28:47;10.07;;;9.07;;
7821;SDS011;3956;50.558;9.678;2022-07-25T03:31:18;13.50;;;8.30;;
7821;SDS011;3956;50.558;9.678;2022-07-25T03:33:46;10.67;;;8.50;;
7821;SDS011;3956;50.558;9.678;2022-07-25T03:36:16;8.90;;;7.97;;
7821;SDS011;3956;50.558;9.678;2022-07-25T03:38:44;11.70;;;9.00;;
7821;SDS011;3956;50.558;9.678;2022-07-25T03:41:13;11.20;;;8.90;;
7821;SDS011;3956;50.558;9.678;2022-07-25T03:43:41;10.63;;;8.53;;
7821;SDS011;3956;50.558;9.678;2022-07-25T03:46:09;9.30;;;8.40;;
7821;SDS011;3956;50.558;9.678;2022-07-25T03:48:37;10.23;;;8.97;;
7821;SDS011;3956;50.558;9.678;2022-07-25T03:51:06;9.40;;;8.50;;
7821;SDS011;3956;50.558;9.678;2022-07-25T03:53:36;9.97;;;8.70;;
7821;SDS011;3956;50.558;9.678;2022-07-25T03:56:19;10.67;;;8.73;;
7821;SDS011;3956;50.558;9.678;2022-07-25T03:58:47;11.40;;;8.67;;
7821;SDS011;3956;50.558;9.678;2022-07-25T04:01:15;9.53;;;8.13;;
7821;SDS011;3956;50.558;9.678;2022-07-25T04:03:45;9.93;;;8.77;;
7821;SDS011;3956;50.558;9.678;2022-07-25T04:06:14;10.47;;;8.53;;
7821;SDS011;3956;50.558;9.678;2022-07-25T04:08:43;10.93;;;8.33;;
7821;SDS011;3956;50.558;9.678;2022-07-25T04:11:12;10.60;;;8.90;;
7821;SDS011;3956;50.558;9.678;2022-07-25T04:13:40;10.57;;;8.43;;
7821;SDS011;3956;50.558;9.678;2022-07-25T04:16:09;9.03;;;8.13;;
7821;SDS011;3956;50.558;9.678;2022-07-25T04:18:47;9.90;;;8.03;;
7821;SDS011;3956;50.558;9.678;2022-07-25T04:21:17;10.27;;;8.60;;
7821;SDS011;3956;50.558;9.678;2022-07-25T04:23:47;9.50;;;8.50;;
7821;SDS011;3956;50.558;9.678;2022-07-25T04:26:16;9.37;;;8.23;;
7821;SDS011;3956;50.558;9.678;2022-07-25T04:28:44;9.87;;;8.87;;
7821;SDS011;3956;50.558;9.678;2022-07-25T04:31:13;8.73;;;7.87;;
7821;SDS011;3956;50.558;9.678;2022-07-25T04:33:45;9.60;;;8.47;;
7821;SDS011;3956;50.558;9.678;2022-07-25T04:36:13;9.33;;;8.03;;
7821;SDS011;3956;50.558;9.678;2022-07-25T04:38:42;9.67;;;8.17;;
7821;SDS011;3956;50.558;9.678;2022-07-25T04:41:12;10.13;;;8.97;;
7821;SDS011;3956;50.558;9.678;2022-07-25T04:43:40;11.07;;;8.67;;
7821;SDS011;3956;50.558;9.678;2022-07-25T04:46:16;10.67;;;8.87;;
7821;SDS011;3956;50.558;9.678;2022-07-25T04:48:45;9.70;;;8.60;;
7821;SDS011;3956;50.558;9.678;2022-07-25T04:51:14;11.00;;;8.83;;
7821;SDS011;3956;50.558;9.678;2022-07-25T04:53:42;13.27;;;9.30;;
7821;SDS011;3956;50.558;9.678;2022-07-25T04:56:13;10.47;;;9.27;;
7821;SDS011;3956;50.558;9.678;2022-07-25T04:58:47;11.27;;;10.07;;
7821;SDS011;3956;50.558;9.678;2022-07-25T05:01:16;10.10;;;8.93;;
7821;SDS011;3956;50.558;9.678;2022-07-25T05:03:44;12.03;;;9.10;;
7821;SDS011;3956;50.558;9.678;2022-07-25T05:06:15;13.30;;;9.27;;
7821;SDS011;3956;50.558;9.678;2022-07-25T05:08:44;12.20;;;9.27;;
7821;SDS011;3956;50.558;9.678;2022-07-25T05:11:14;9.97;;;8.90;;
7821;SDS011;3956;50.558;9.678;2022-07-25T05:13:42;10.57;;;9.47;;
7821;SDS011;3956;50.558;9.678;2022-07-25T05:16:11;10.07;;;9.07;;
7821;SDS011;3956;50.558;9.678;2022-07-25T05:18:40;12.17;;;9.40;;
7821;SDS011;3956;50.558;9.678;2022-07-25T05:21:08;12.27;;;9.63;;
7821;SDS011;3956;50.558;9.678;2022-07-25T05:23:38;11.00;;;9.83;;
7821;SDS011;3956;50.558;9.678;2022-07-25T05:26:13;9.80;;;8.80;;
7821;SDS011;3956;50.558;9.678;2022-07-25T05:28:41;10.80;;;9.40;;
7821;SDS011;3956;50.558;9.678;2022-07-25T05:31:10;11.03;;;9.80;;
7821;SDS011;3956;50.558;9.678;2022-07-25T05:33:38;16.60;;;10.13;;
7821;SDS011;3956;50.558;9.678;2022-07-25T05:36:07;10.87;;;9.10;;
7821;SDS011;3956;50.558;9.678;2022-07-25T05:38:36;13.60;;;11.00;;
7821;SDS011;3956;50.558;9.678;2022-07-25T05:41:05;11.90;;;9.77;;
7821;SDS011;3956;50.558;9.678;2022-07-25T05:43:35;12.73;;;10.37;;
7821;SDS011;3956;50.558;9.678;2022-07-25T05:46:03;11.13;;;9.50;;
7821;SDS011;3956;50.558;9.678;2022-07-25T05:48:32;11.03;;;9.33;;
7821;SDS011;3956;50.558;9.678;2022-07-25T05:51:01;15.57;;;10.07;;
7821;SDS011;3956;50.558;9.678;2022-07-25T05:53:31;10.87;;;8.93;;
7821;SDS011;3956;50.558;9.678;2022-07-25T05:55:59;12.47;;;10.00;;
7821;SDS011;3956;50.558;9.678;2022-07-25T05:58:28;13.43;;;9.47;;
7821;SDS011;3956;50.558;9.678;2022-07-25T06:00:58;11.57;;;9.23;;
7821;SDS011;3956;50.558;9.678;2022-07-25T06:03:26;12.97;;;8.93;;
7821;SDS011;3956;50.558;9.678;2022-07-25T06:05:55;13.67;;;10.00;;
7821;SDS011;3956;50.558;9.678;2022-07-25T06:08:23;11.73;;;9.37;;
7821;SDS011;3956;50.558;9.678;2022-07-25T06:10:54;13.23;;;10.40;;
7821;SDS011;3956;50.558;9.678;2022-07-25T06:13:23;10.20;;;8.80;;
7821;SDS011;3956;50.558;9.678;2022-07-25T06:15:53;12.37;;;10.17;;
7821;SDS011;3956;50.558;9.678;2022-07-25T06:18:23;30.30;;;10.50;;
7821;SDS011;3956;50.558;9.678;2022-07-25T06:20:52;20.83;;;15.23;;
7821;SDS011;3956;50.558;9.678;2022-07-25T06:23:20;11.57;;;9.20;;
7821;SDS011;3956;50.558;9.678;2022-07-25T06:25:53;18.57;;;10.27;;
7821;SDS011;3956;50.558;9.678;2022-07-25T06:28:21;15.50;;;9.83;;
7821;SDS011;3956;50.558;9.678;2022-07-25T06:30:49;13.33;;;9.83;;
7821;SDS011;3956;50.558;9.678;2022-07-25T06:33:18;12.37;;;9.87;;
7821;SDS011;3956;50.558;9.678;2022-07-25T06:35:48;12.93;;;9.93;;
7821;SDS011;3956;50.558;9.678;2022-07-25T06:38:16;14.70;;;9.47;;
7821;SDS011;3956;50.558;9.678;2022-07-25T06:40:44;11.07;;;9.23;;
7821;SDS011;3956;50.558;9.678;2022-07-25T06:43:13;12.40;;;10.13;;
7821;SDS011;3956;50.558;9.678;2022-07-25T06:45:42;11.63;;;9.50;;
7821;SDS011;3956;50.558;9.678;2022-07-25T06:48:13;10.83;;;9.63;;
7821;SDS011;3956;50.558;9.678;2022-07-25T06:50:41;12.97;;;8.93;;
7821;SDS011;3956;50.558;9.678;2022-07-25T06:53:13;12.83;;;8.93;;
7821;SDS011;3956;50.558;9.678;2022-07-25T06:55:41;28.03;;;21.37;;
7821;SDS011;3956;50.558;9.678;2022-07-25T06:58:13;12.83;;;9.20;;
7821;SDS011;3956;50.558;9.678;2022-07-25T07:00:41;16.07;;;9.03;;
7821;SDS011;3956;50.558;9.678;2022-07-25T07:03:11;13.03;;;8.30;;
7821;SDS011;3956;50.558;9.678;2022-07-25T07:05:39;10.03;;;8.20;;
7821;SDS011;3956;50.558;9.678;2022-07-25T07:08:11;10.97;;;8.60;;
7821;SDS011;3956;50.558;9.678;2022-07-25T07:10:43;11.37;;;7.97;;
7821;SDS011;3956;50.558;9.678;2022-07-25T07:13:13;11.37;;;7.50;;
7821;SDS011;3956;50.558;9.678;2022-07-25T07:15:49;12.77;;;7.70;;
7821;SDS011;3956;50.558;9.678;2022-07-25T07:18:18;10.57;;;7.77;;
7821;SDS011;3956;50.558;9.678;2022-07-25T07:20:47;8.93;;;7.77;;
7821;SDS011;3956;50.558;9.678;2022-07-25T07:23:18;10.97;;;7.47;;
7821;SDS011;3956;50.558;9.678;2022-07-25T07:25:47;9.63;;;7.10;;
7821;SDS011;3956;50.558;9.678;2022-07-25T07:28:16;32.50;;;25.30;;
7821;SDS011;3956;50.558;9.678;2022-07-25T07:30:44;9.07;;;7.63;;
7821;SDS011;3956;50.558;9.678;2022-07-25T07:33:33;8.07;;;7.27;;
7821;SDS011;3956;50.558;9.678;2022-07-25T07:36:04;8.50;;;7.38;;
7821;SDS011;3956;50.558;9.678;2022-07-25T07:38:34;8.70;;;6.30;;
7821;SDS011;3956;50.558;9.678;2022-07-25T07:41:05;7.50;;;6.20;;
7821;SDS011;3956;50.558;9.678;2022-07-25T07:43:33;7.90;;;6.20;;
7821;SDS011;3956;50.558;9.678;2022-07-25T07:46:02;8.73;;;6.10;;
7821;SDS011;3956;50.558;9.678;2022-07-25T07:48:31;8.00;;;5.80;;
7821;SDS011;3956;50.558;9.678;2022-07-25T07:51:01;9.13;;;6.20;;
7821;SDS011;3956;50.558;9.678;2022-07-25T07:53:30;7.17;;;6.20;;
7821;SDS011;3956;50.558;9.678;2022-07-25T07:56:17;7.00;;;6.33;;
7821;SDS011;3956;50.558;9.678;2022-07-25T07:58:48;6.73;;;6.00;;
7821;SDS011;3956;50.558;9.678;2022-07-25T08:01:17;6.73;;;6.13;;
7821;SDS011;3956;50.558;9.678;2022-07-25T08:03:45;7.03;;;6.33;;
7821;SDS011;3956;50.558;9.678;2022-07-25T08:06:14;7.90;;;7.10;;
7821;SDS011;3956;50.558;9.678;2022-07-25T08:08:43;8.07;;;6.60;;
7821;SDS011;3956;50.558;9.678;2022-07-25T08:11:12;7.10;;;6.40;;
7821;SDS011;3956;50.558;9.678;2022-07-25T08:13:41;6.90;;;6.20;;
7821;SDS011;3956;50.558;9.678;2022-07-25T08:16:11;6.63;;;5.93;;
7821;SDS011;3956;50.558;9.678;2022-07-25T08:18:42;8.67;;;5.80;;
7821;SDS011;3956;50.558;9.678;2022-07-25T08:21:11;6.93;;;6.10;;
7821;SDS011;3956;50.558;9.678;2022-07-25T08:23:39;6.93;;;6.23;;
7821;SDS011;3956;50.558;9.678;2022-07-25T08:26:07;7.97;;;6.20;;
7821;SDS011;3956;50.558;9.678;2022-07-25T08:28:36;6.57;;;5.90;;
7821;SDS011;3956;50.558;9.678;2022-07-25T08:31:07;6.67;;;6.07;;
7821;SDS011;3956;50.558;9.678;2022-07-25T08:33:35;10.80;;;9.70;;
7821;SDS011;3956;50.558;9.678;2022-07-25T08:36:06;6.47;;;5.83;;
7821;SDS011;3956;50.558;9.678;2022-07-25T08:38:36;6.83;;;6.13;;
7821;SDS011;3956;50.558;9.678;2022-07-25T08:41:04;7.77;;;6.17;;
7821;SDS011;3956;50.558;9.678;2022-07-25T08:43:34;7.70;;;6.30;;
7821;SDS011;3956;50.558;9.678;2022-07-25T08:46:04;6.40;;;5.80;;
7821;SDS011;3956;50.558;9.678;2022-07-25T08:48:35;6.93;;;6.23;;
7821;SDS011;3956;50.558;9.678;2022-07-25T08:51:06;6.90;;;6.20;;
7821;SDS011;3956;50.558;9.678;2022-07-25T08:53:36;6.67;;;5.97;;
7821;SDS011;3956;50.558;9.678;2022-07-25T08:56:06;10.45;;;8.25;;
7821;SDS011;3956;50.558;9.678;2022-07-25T08:58:44;8.57;;;6.23;;
7821;SDS011;3956;50.558;9.678;2022-07-25T09:01:14;6.90;;;6.00;;
7821;SDS011;3956;50.558;9.678;2022-07-25T09:03:42;6.80;;;6.10;;
7821;SDS011;3956;50.558;9.678;2022-07-25T09:06:14;7.70;;;5.73;;
7821;SDS011;3956;50.558;9.678;2022-07-25T09:08:51;7.97;;;6.47;;
7821;SDS011;3956;50.558;9.678;2022-07-25T09:11:30;8.03;;;6.50;;
7821;SDS011;3956;50.558;9.678;2022-07-25T09:14:03;6.97;;;6.23;;
7821;SDS011;3956;50.558;9.678;2022-07-25T09:16:37;10.00;;;6.50;;
7821;SDS011;3956;50.558;9.678;2022-07-25T09:19:10;7.40;;;6.60;;
7821;SDS011;3956;50.558;9.678;2022-07-25T09:21:40;9.90;;;8.03;;
7821;SDS011;3956;50.558;9.678;2022-07-25T09:24:12;6.63;;;6.03;;
7821;SDS011;3956;50.558;9.678;2022-07-25T09:26:48;7.00;;;6.30;;
7821;SDS011;3956;50.558;9.678;2022-07-25T09:29:19;7.07;;;6.38;;
7821;SDS011;3956;50.558;9.678;2022-07-25T09:31:52;8.23;;;6.20;;
7821;SDS011;3956;50.558;9.678;2022-07-25T09:34:31;8.10;;;6.25;;
7821;SDS011;3956;50.558;9.678;2022-07-25T09:37:01;7.22;;;6.30;;
7821;SDS011;3956;50.558;9.678;2022-07-25T09:39:34;6.88;;;6.22;;
7821;SDS011;3956;50.558;9.678;2022-07-25T09:42:19;6.95;;;6.25;;
7821;SDS011;3956;50.558;9.678;2022-07-25T09:44:59;6.60;;;6.00;;
7821;SDS011;3956;50.558;9.678;2022-07-25T09:47:32;6.80;;;6.10;;
7821;SDS011;3956;50.558;9.678;2022-07-25T09:50:03;6.60;;;5.90;;
7821;SDS011;3956;50.558;9.678;2022-07-25T09:52:33;6.50;;;5.90;;
7821;SDS011;3956;50.558;9.678;2022-07-25T09:55:03;6.90;;;6.03;;
7821;SDS011;3956;50.558;9.678;2022-07-25T09:57:35;8.33;;;6.33;;
7821;SDS011;3956;50.558;9.678;2022-07-25T10:00:04;6.43;;;5.70;;
7821;SDS011;3956;50.558;9.678;2022-07-25T10:02:51;8.73;;;6.57;;
7821;SDS011;3956;50.558;9.678;2022-07-25T10:05:35;9.00;;;6.63;;
7821;SDS011;3956;50.558;9.678;2022-07-25T10:08:14;7.37;;;6.60;;
7821;SDS011;3956;50.558;9.678;2022-07-25T10:10:43;6.53;;;5.93;;
7821;SDS011;3956;50.558;9.678;2022-07-25T10:13:14;6.80;;;6.00;;
7821;SDS011;3956;50.558;9.678;2022-07-25T10:15:45;7.87;;;6.40;;
7821;SDS011;3956;50.558;9.678;2022-07-25T10:18:18;7.73;;;6.47;;
7821;SDS011;3956;50.558;9.678;2022-07-25T10:20:49;9.33;;;7.90;;
7821;SDS011;3956;50.558;9.678;2022-07-25T10:23:22;6.30;;;5.70;;
7821;SDS011;3956;50.558;9.678;2022-07-25T10:25:59;7.10;;;5.77;;
7821;SDS011;3956;50.558;9.678;2022-07-25T10:28:35;8.13;;;6.40;;
7821;SDS011;3956;50.558;9.678;2022-07-25T10:31:13;7.13;;;6.43;;
7821;SDS011;3956;50.558;9.678;2022-07-25T10:33:52;6.03;;;5.43;;
7821;SDS011;3956;50.558;9.678;2022-07-25T10:36:24;6.33;;;5.70;;
7821;SDS011;3956;50.558;9.678;2022-07-25T10:38:59;8.13;;;5.70;;
7821;SDS011;3956;50.558;9.678;2022-07-25T10:41:28;6.50;;;5.70;;
7821;SDS011;3956;50.558;9.678;2022-07-25T10:43:59;5.90;;;5.40;;
7821;SDS011;3956;50.558;9.678;2022-07-25T10:46:29;5.97;;;5.37;;
7821;SDS011;3956;50.558;9.678;2022-07-25T10:49:05;6.40;;;5.70;;
7821;SDS011;3956;50.558;9.678;2022-07-25T10:51:36;6.73;;;5.83;;
7821;SDS011;3956;50.558;9.678;2022-07-25T10:54:11;7.20;;;6.40;;
7821;SDS011;3956;50.558;9.678;2022-07-25T10:56:49;6.00;;;5.40;;
7821;SDS011;3956;50.558;9.678;2022-07-25T10:59:25;7.77;;;6.40;;
7821;SDS011;3956;50.558;9.678;2022-07-25T11:01:55;7.77;;;6.40;;
7821;SDS011;3956;50.558;9.678;2022-07-25T11:04:26;6.63;;;6.03;;
7821;SDS011;3956;50.558;9.678;2022-07-25T11:06:55;6.20;;;5.67;;
7821;SDS011;3956;50.558;9.678;2022-07-25T11:09:25;5.90;;;5.40;;
7821;SDS011;3956;50.558;9.678;2022-07-25T11:11:54;8.47;;;5.90;;
7821;SDS011;3956;50.558;9.678;2022-07-25T11:14:24;6.77;;;6.03;;
7821;SDS011;3956;50.558;9.678;2022-07-25T11:16:56;7.87;;;5.80;;
7821;SDS011;3956;50.558;9.678;2022-07-25T11:19:40;6.27;;;5.67;;
7821;SDS011;3956;50.558;9.678;2022-07-25T11:22:10;6.40;;;5.80;;
7821;SDS011;3956;50.558;9.678;2022-07-25T11:24:39;6.60;;;5.80;;
7821;SDS011;3956;50.558;9.678;2022-07-25T11:27:09;6.50;;;5.90;;
7821;SDS011;3956;50.558;9.678;2022-07-25T11:29:39;6.27;;;5.47;;
7821;SDS011;3956;50.558;9.678;2022-07-25T11:32:08;6.83;;;5.70;;
7821;SDS011;3956;50.558;9.678;2022-07-25T11:34:38;6.00;;;5.40;;
7821;SDS011;3956;50.558;9.678;2022-07-25T11:37:10;6.20;;;5.60;;
7821;SDS011;3956;50.558;9.678;2022-07-25T11:39:41;6.83;;;5.63;;
7821;SDS011;3956;50.558;9.678;2022-07-25T11:42:14;5.63;;;5.13;;
7821;SDS011;3956;50.558;9.678;2022-07-25T11:44:44;8.10;;;5.50;;
7821;SDS011;3956;50.558;9.678;2022-07-25T11:47:21;6.37;;;5.27;;
7821;SDS011;3956;50.558;9.678;2022-07-25T11:49:54;6.53;;;5.77;;
7821;SDS011;3956;50.558;9.678;2022-07-25T11:52:26;6.33;;;5.73;;
7821;SDS011;3956;50.558;9.678;2022-07-25T11:54:57;5.90;;;5.30;;
7821;SDS011;3956;50.558;9.678;2022-07-25T11:57:29;6.60;;;5.40;;
7821;SDS011;3956;50.558;9.678;2022-07-25T11:59:59;5.23;;;4.73;;
7821;SDS011;3956;50.558;9.678;2022-07-25T12:02:29;7.40;;;5.10;;
7821;SDS011;3956;50.558;9.678;2022-07-25T12:05:02;5.27;;;4.77;;
7821;SDS011;3956;50.558;9.678;2022-07-25T12:07:35;5.70;;;5.17;;
7821;SDS011;3956;50.558;9.678;2022-07-25T12:10:05;6.00;;;5.40;;
7821;SDS011;3956;50.558;9.678;2022-07-25T12:12:42;9.23;;;5.80;;
7821;SDS011;3956;50.558;9.678;2022-07-25T12:15:12;5.57;;;5.07;;
7821;SDS011;3956;50.558;9.678;2022-07-25T12:17:41;6.63;;;5.17;;
7821;SDS011;3956;50.558;9.678;2022-07-25T12:20:13;6.87;;;4.50;;
7821;SDS011;3956;50.558;9.678;2022-07-25T12:22:44;9.70;;;5.00;;
7821;SDS011;3956;50.558;9.678;2022-07-25T12:25:13;7.10;;;4.70;;
7821;SDS011;3956;50.558;9.678;2022-07-25T12:27:42;5.53;;;4.93;;
7821;SDS011;3956;50.558;9.678;2022-07-25T12:30:11;5.70;;;4.90;;
7821;SDS011;3956;50.558;9.678;2022-07-25T12:32:40;6.13;;;4.90;;
7821;SDS011;3956;50.558;9.678;2022-07-25T12:35:10;7.43;;;4.67;;
7821;SDS011;3956;50.558;9.678;2022-07-25T12:37:41;7.23;;;4.63;;
7821;SDS011;3956;50.558;9.678;2022-07-25T12:40:10;5.03;;;4.50;;
7821;SDS011;3956;50.558;9.678;2022-07-25T12:42:40;5.40;;;4.90;;
7821;SDS011;3956;50.558;9.678;2022-07-25T12:45:09;7.37;;;4.87;;
7821;SDS011;3956;50.558;9.678;2022-07-25T12:47:37;6.63;;;4.63;;
7821;SDS011;3956;50.558;9.678;2022-07-25T12:50:06;6.83;;;4.93;;
7821;SDS011;3956;50.558;9.678;2022-07-25T12:52:37;6.83;;;4.87;;
7821;SDS011;3956;50.558;9.678;2022-07-25T12:55:07;5.77;;;4.70;;
7821;SDS011;3956;50.558;9.678;2022-07-25T12:57:38;5.60;;;4.80;;
7821;SDS011;3956;50.558;9.678;2022-07-25T13:00:07;4.87;;;4.37;;
7821;SDS011;3956;50.558;9.678;2022-07-25T13:02:38;5.90;;;4.50;;
7821;SDS011;3956;50.558;9.678;2022-07-25T13:05:07;5.57;;;4.50;;
7821;SDS011;3956;50.558;9.678;2022-07-25T13:07:38;7.10;;;4.63;;
7821;SDS011;3956;50.558;9.678;2022-07-25T13:10:06;6.10;;;4.93;;
7821;SDS011;3956;50.558;9.678;2022-07-25T13:12:41;6.80;;;4.60;;
7821;SDS011;3956;50.558;9.678;2022-07-25T13:15:09;5.43;;;4.70;;
7821;SDS011;3956;50.558;9.678;2022-07-25T13:17:38;6.07;;;4.40;;
7821;SDS011;3956;50.558;9.678;2022-07-25T13:20:08;5.00;;;4.50;;
7821;SDS011;3956;50.558;9.678;2022-07-25T13:22:39;5.73;;;5.07;;
7821;SDS011;3956;50.558;9.678;2022-07-25T13:25:07;6.83;;;5.00;;
7821;SDS011;3956;50.558;9.678;2022-07-25T13:27:36;5.73;;;5.23;;
7821;SDS011;3956;50.558;9.678;2022-07-25T13:30:06;7.30;;;5.10;;
7821;SDS011;3956;50.558;9.678;2022-07-25T13:32:35;7.43;;;4.93;;
7821;SDS011;3956;50.558;9.678;2022-07-25T13:35:04;6.67;;;5.00;;
7821;SDS011;3956;50.558;9.678;2022-07-25T13:37:33;10.60;;;5.33;;
7821;SDS011;3956;50.558;9.678;2022-07-25T13:40:04;6.60;;;5.20;;
7821;SDS011;3956;50.558;9.678;2022-07-25T13:42:34;6.60;;;5.33;;
7821;SDS011;3956;50.558;9.678;2022-07-25T13:45:04;5.97;;;5.07;;
7821;SDS011;3956;50.558;9.678;2022-07-25T13:47:36;6.23;;;5.10;;
7821;SDS011;3956;50.558;9.678;2022-07-25T13:50:04;7.43;;;5.40;;
7821;SDS011;3956;50.558;9.678;2022-07-25T13:52:36;8.53;;;5.50;;
7821;SDS011;3956;50.558;9.678;2022-07-25T13:55:07;7.80;;;5.67;;
7821;SDS011;3956;50.558;9.678;2022-07-25T13:57:36;7.97;;;5.53;;
7821;SDS011;3956;50.558;9.678;2022-07-25T14:00:05;10.43;;;6.00;;
7821;SDS011;3956;50.558;9.678;2022-07-25T14:02:35;10.23;;;6.30;;
7821;SDS011;3956;50.558;9.678;2022-07-25T14:05:04;10.83;;;6.57;;
7821;SDS011;3956;50.558;9.678;2022-07-25T14:07:32;12.03;;;6.53;;
7821;SDS011;3956;50.558;9.678;2022-07-25T14:10:01;7.93;;;5.87;;
7821;SDS011;3956;50.558;9.678;2022-07-25T14:12:36;10.37;;;6.10;;
7821;SDS011;3956;50.558;9.678;2022-07-25T14:15:07;7.43;;;6.10;;
7821;SDS011;3956;50.558;9.678;2022-07-25T14:17:36;7.40;;;5.70;;
7821;SDS011;3956;50.558;9.678;2022-07-25T14:20:05;7.57;;;5.93;;
7821;SDS011;3956;50.558;9.678;2022-07-25T14:22:35;6.93;;;6.00;;
7821;SDS011;3956;50.558;9.678;2022-07-25T14:25:05;12.50;;;6.57;;
7821;SDS011;3956;50.558;9.678;2022-07-25T14:27:35;7.17;;;6.00;;
7821;SDS011;3956;50.558;9.678;2022-07-25T14:30:06;6.53;;;5.83;;
7821;SDS011;3956;50.558;9.678;2022-07-25T14:32:36;7.97;;;5.87;;
7821;SDS011;3956;50.558;9.678;2022-07-25T14:35:05;7.10;;;5.90;;
7821;SDS011;3956;50.558;9.678;2022-07-25T14:37:36;6.93;;;5.97;;
7821;SDS011;3956;50.558;9.678;2022-07-25T14:40:06;7.03;;;5.80;;
7821;SDS011;3956;50.558;9.678;2022-07-25T14:42:40;7.70;;;5.80;;
7821;SDS011;3956;50.558;9.678;2022-07-25T14:45:10;7.57;;;5.93;;
7821;SDS011;3956;50.558;9.678;2022-07-25T14:47:38;7.20;;;6.20;;
7821;SDS011;3956;50.558;9.678;2022-07-25T14:50:08;8.50;;;6.37;;
7821;SDS011;3956;50.558;9.678;2022-07-25T14:52:37;11.30;;;6.37;;
7821;SDS011;3956;50.558;9.678;2022-07-25T14:55:06;8.07;;;6.70;;
7821;SDS011;3956;50.558;9.678;2022-07-25T14:57:35;7.40;;;6.60;;
7821;SDS011;3956;50.558;9.678;2022-07-25T15:00:06;6.97;;;6.37;;
7821;SDS011;3956;50.558;9.678;2022-07-25T15:02:36;11.33;;;6.97;;
7821;SDS011;3956;50.558;9.678;2022-07-25T15:05:05;7.53;;;6.30;;
7821;SDS011;3956;50.558;9.678;2022-07-25T15:07:35;10.20;;;7.20;;
7821;SDS011;3956;50.558;9.678;2022-07-25T15:10:05;8.53;;;7.00;;
7821;SDS011;3956;50.558;9.678;2022-07-25T15:12:37;7.63;;;6.70;;
7821;SDS011;3956;50.558;9.678;2022-07-25T15:15:37;9.40;;;6.90;;
7821;SDS011;3956;50.558;9.678;2022-07-25T15:18:05;8.97;;;6.83;;
7821;SDS011;3956;50.558;9.678;2022-07-25T15:20:39;11.43;;;7.10;;
7821;SDS011;3956;50.558;9.678;2022-07-25T15:23:07;10.27;;;7.00;;
7821;SDS011;3956;50.558;9.678;2022-07-25T15:25:36;7.93;;;7.10;;
7821;SDS011;3956;50.558;9.678;2022-07-25T15:28:24;7.50;;;6.67;;
7821;SDS011;3956;50.558;9.678;2022-07-25T15:30:55;9.33;;;6.73;;